sensor_id;sensor_type;location;lat;lon;timestamp;P1;durP1;ratioP1;P2;durP2;ratioP2
64282;SDS011;50497;50.720;-2.084;2022-11-14T00:02:06;26.08;;;11.77;;
64282;SDS011;50497;50.720;-2.084;2022-11-14T00:04:32;26.27;;;12.63;;
64282;SDS011;50497;50.720;-2.084;2022-11-14T00:06:57;29.10;;;13.23;;
64282;SDS011;50497;50.720;-2.084;2022-11-14T00:09:24;28.95;;;13.32;;
64282;SDS011;50497;50.720;-2.084;2022-11-14T00:11:51;26.98;;;12.73;;
64282;SDS011;50497;50.720;-2.084;2022-11-14T00:14:16;45.85;;;14.40;;
64282;SDS011;50497;50.720;-2.084;2022-11-14T00:16:42;102.53;;;18.05;;
64282;SDS011;50497;50.720;-2.084;2022-11-14T00:19:07;106.05;;;16.67;;
64282;SDS011;50497;50.720;-2.084;2022-11-14T00:21:33;116.32;;;18.30;;
64282;SDS011;50497;50.720;-2.084;2022-11-14T00:23:58;49.10;;;13.43;;
64282;SDS011;50497;50.720;-2.084;2022-11-14T00:26:23;73.50;;;17.58;;
64282;SDS011;50497;50.720;-2.084;2022-11-14T00:28:49;101.07;;;16.10;;
64282;SDS011;50497;50.720;-2.084;2022-11-14T00:31:14;59.08;;;17.42;;
64282;SDS011;50497;50.720;-2.084;2022-11-14T00:33:40;37.80;;;14.63;;
64282;SDS011;50497;50.720;-2.084;2022-11-14T00:36:05;47.47;;;16.33;;
64282;SDS011;50497;50.720;-2.084;2022-11-14T00:38:31;39.20;;;14.82;;
64282;SDS011;50497;50.720;-2.084;2022-11-14T00:40:56;51.92;;;16.92;;
64282;SDS011;50497;50.720;-2.084;2022-11-14T00:43:22;67.55;;;17.83;;
64282;SDS011;50497;50.720;-2.084;2022-11-14T00:45:47;53.38;;;18.80;;
64282;SDS011;50497;50.720;-2.084;2022-11-14T00:48:13;69.50;;;19.15;;
64282;SDS011;50497;50.720;-2.084;2022-11-14T00:50:39;59.65;;;15.88;;
64282;SDS011;50497;50.720;-2.084;2022-11-14T00:53:06;59.17;;;16.63;;
64282;SDS011;50497;50.720;-2.084;2022-11-14T00:55:31;71.00;;;15.70;;
64282;SDS011;50497;50.720;-2.084;2022-11-14T00:57:56;59.30;;;15.70;;
64282;SDS011;50497;50.720;-2.084;2022-11-14T01:00:22;32.13;;;13.65;;
64282;SDS011;50497;50.720;-2.084;2022-11-14T01:02:47;30.17;;;13.52;;
64282;SDS011;50497;50.720;-2.084;2022-11-14T01:05:13;23.27;;;10.93;;
64282;SDS011;50497;50.720;-2.084;2022-11-14T01:07:38;30.63;;;12.73;;
64282;SDS011;50497;50.720;-2.084;2022-11-14T01:10:04;28.02;;;12.13;;
64282;SDS011;50497;50.720;-2.084;2022-11-14T01:12:30;34.17;;;13.38;;
64282;SDS011;50497;50.720;-2.084;2022-11-14T01:14:55;26.98;;;13.00;;
64282;SDS011;50497;50.720;-2.084;2022-11-14T01:17:21;29.25;;;14.02;;
64282;SDS011;50497;50.720;-2.084;2022-11-14T01:19:46;22.70;;;11.88;;
64282;SDS011;50497;50.720;-2.084;2022-11-14T01:22:12;19.23;;;10.50;;
64282;SDS011;50497;50.720;-2.084;2022-11-14T01:24:37;19.15;;;10.50;;
64282;SDS011;50497;50.720;-2.084;2022-11-14T01:27:03;18.42;;;9.63;;
64282;SDS011;50497;50.720;-2.084;2022-11-14T01:29:29;44.08;;;12.90;;
64282;SDS011;50497;50.720;-2.084;2022-11-14T01:31:54;77.85;;;13.63;;
64282;SDS011;50497;50.720;-2.084;2022-11-14T01:34:20;37.22;;;12.38;;
64282;SDS011;50497;50.720;-2.084;2022-11-14T01:36:45;33.67;;;12.60;;
64282;SDS011;50497;50.720;-2.084;2022-11-14T01:39:11;24.45;;;11.18;;
64282;SDS011;50497;50.720;-2.084;2022-11-14T01:41:36;26.38;;;12.68;;
64282;SDS011;50497;50.720;-2.084;2022-11-14T01:44:01;26.42;;;12.98;;
64282;SDS011;50497;50.720;-2.084;2022-11-14T01:46:31;28.92;;;12.55;;
64282;SDS011;50497;50.720;-2.084;2022-11-14T01:51:38;29.75;;;13.63;;
64282;SDS011;50497;50.720;-2.084;2022-11-14T01:54:15;26.90;;;12.85;;
64282;SDS011;50497;50.720;-2.084;2022-11-14T01:56:50;28.85;;;14.05;;
64282;SDS011;50497;50.720;-2.084;2022-11-14T01:59:20;27.02;;;12.82;;
64282;SDS011;50497;50.720;-2.084;2022-11-14T02:01:50;30.00;;;14.82;;
64282;SDS011;50497;50.720;-2.084;2022-11-14T02:04:22;30.67;;;13.88;;
64282;SDS011;50497;50.720;-2.084;2022-11-14T02:06:52;29.98;;;13.70;;
64282;SDS011;50497;50.720;-2.084;2022-11-14T02:09:21;43.55;;;16.08;;
64282;SDS011;50497;50.720;-2.084;2022-11-14T02:11:47;65.82;;;17.48;;
64282;SDS011;50497;50.720;-2.084;2022-11-14T02:14:15;52.88;;;15.65;;
64282;SDS011;50497;50.720;-2.084;2022-11-14T02:16:40;36.63;;;15.45;;
64282;SDS011;50497;50.720;-2.084;2022-11-14T02:19:07;32.58;;;14.40;;
64282;SDS011;50497;50.720;-2.084;2022-11-14T02:21:33;30.02;;;12.85;;
64282;SDS011;50497;50.720;-2.084;2022-11-14T02:23:58;26.42;;;11.05;;
64282;SDS011;50497;50.720;-2.084;2022-11-14T02:26:24;26.98;;;12.02;;
64282;SDS011;50497;50.720;-2.084;2022-11-14T02:28:49;28.50;;;12.13;;
64282;SDS011;50497;50.720;-2.084;2022-11-14T02:31:15;25.60;;;11.57;;
64282;SDS011;50497;50.720;-2.084;2022-11-14T02:33:41;29.40;;;12.48;;
64282;SDS011;50497;50.720;-2.084;2022-11-14T02:36:07;25.35;;;12.50;;
64282;SDS011;50497;50.720;-2.084;2022-11-14T02:38:32;24.77;;;12.45;;
64282;SDS011;50497;50.720;-2.084;2022-11-14T02:40:59;24.00;;;11.75;;
64282;SDS011;50497;50.720;-2.084;2022-11-14T02:45:50;25.73;;;12.45;;
64282;SDS011;50497;50.720;-2.084;2022-11-14T02:48:15;18.58;;;10.45;;
64282;SDS011;50497;50.720;-2.084;2022-11-14T02:50:41;23.42;;;12.07;;
64282;SDS011;50497;50.720;-2.084;2022-11-14T02:53:06;19.92;;;10.25;;
64282;SDS011;50497;50.720;-2.084;2022-11-14T02:55:32;22.83;;;11.77;;
64282;SDS011;50497;50.720;-2.084;2022-11-14T02:57:57;27.58;;;13.60;;
64282;SDS011;50497;50.720;-2.084;2022-11-14T03:00:23;24.27;;;11.93;;
64282;SDS011;50497;50.720;-2.084;2022-11-14T03:02:49;28.58;;;14.32;;
64282;SDS011;50497;50.720;-2.084;2022-11-14T03:05:16;27.08;;;13.63;;
64282;SDS011;50497;50.720;-2.084;2022-11-14T03:07:41;28.77;;;12.80;;
64282;SDS011;50497;50.720;-2.084;2022-11-14T03:10:07;25.25;;;12.93;;
64282;SDS011;50497;50.720;-2.084;2022-11-14T03:12:33;22.65;;;11.70;;
64282;SDS011;50497;50.720;-2.084;2022-11-14T03:14:59;23.13;;;11.77;;
64282;SDS011;50497;50.720;-2.084;2022-11-14T03:17:24;22.50;;;11.25;;
64282;SDS011;50497;50.720;-2.084;2022-11-14T03:19:49;21.85;;;11.55;;
64282;SDS011;50497;50.720;-2.084;2022-11-14T03:22:15;22.90;;;11.80;;
64282;SDS011;50497;50.720;-2.084;2022-11-14T03:24:40;23.08;;;12.10;;
64282;SDS011;50497;50.720;-2.084;2022-11-14T03:27:06;23.77;;;12.10;;
64282;SDS011;50497;50.720;-2.084;2022-11-14T03:29:31;21.23;;;11.13;;
64282;SDS011;50497;50.720;-2.084;2022-11-14T03:31:57;28.48;;;12.60;;
64282;SDS011;50497;50.720;-2.084;2022-11-14T03:34:22;20.33;;;11.43;;
64282;SDS011;50497;50.720;-2.084;2022-11-14T03:36:47;23.25;;;12.02;;
64282;SDS011;50497;50.720;-2.084;2022-11-14T03:39:13;23.38;;;11.98;;
64282;SDS011;50497;50.720;-2.084;2022-11-14T03:41:38;21.13;;;11.48;;
64282;SDS011;50497;50.720;-2.084;2022-11-14T03:44:04;28.52;;;13.07;;
64282;SDS011;50497;50.720;-2.084;2022-11-14T03:46:29;25.27;;;11.85;;
64282;SDS011;50497;50.720;-2.084;2022-11-14T03:48:55;20.98;;;11.20;;
64282;SDS011;50497;50.720;-2.084;2022-11-14T03:51:20;30.33;;;12.88;;
64282;SDS011;50497;50.720;-2.084;2022-11-14T03:53:45;37.80;;;13.73;;
64282;SDS011;50497;50.720;-2.084;2022-11-14T03:56:11;37.40;;;14.18;;
64282;SDS011;50497;50.720;-2.084;2022-11-14T03:58:36;23.42;;;11.95;;
64282;SDS011;50497;50.720;-2.084;2022-11-14T04:01:02;27.30;;;13.20;;
64282;SDS011;50497;50.720;-2.084;2022-11-14T04:03:27;28.75;;;13.43;;
64282;SDS011;50497;50.720;-2.084;2022-11-14T04:05:57;31.52;;;14.30;;
64282;SDS011;50497;50.720;-2.084;2022-11-14T04:08:22;25.50;;;12.48;;
64282;SDS011;50497;50.720;-2.084;2022-11-14T04:10:48;26.70;;;12.82;;
64282;SDS011;50497;50.720;-2.084;2022-11-14T04:13:13;29.50;;;14.02;;
64282;SDS011;50497;50.720;-2.084;2022-11-14T04:15:39;30.90;;;13.63;;
64282;SDS011;50497;50.720;-2.084;2022-11-14T04:18:05;23.42;;;12.07;;
64282;SDS011;50497;50.720;-2.084;2022-11-14T04:20:30;27.17;;;13.07;;
64282;SDS011;50497;50.720;-2.084;2022-11-14T04:22:56;23.38;;;11.45;;
64282;SDS011;50497;50.720;-2.084;2022-11-14T04:25:21;27.92;;;12.63;;
64282;SDS011;50497;50.720;-2.084;2022-11-14T04:27:47;19.77;;;10.38;;
64282;SDS011;50497;50.720;-2.084;2022-11-14T04:30:12;35.58;;;13.35;;
64282;SDS011;50497;50.720;-2.084;2022-11-14T04:32:38;25.77;;;12.10;;
64282;SDS011;50497;50.720;-2.084;2022-11-14T04:35:03;34.40;;;14.57;;
64282;SDS011;50497;50.720;-2.084;2022-11-14T04:37:29;28.50;;;13.05;;
64282;SDS011;50497;50.720;-2.084;2022-11-14T04:39:54;34.65;;;14.73;;
64282;SDS011;50497;50.720;-2.084;2022-11-14T04:42:23;33.72;;;14.90;;
64282;SDS011;50497;50.720;-2.084;2022-11-14T04:44:49;38.97;;;15.40;;
64282;SDS011;50497;50.720;-2.084;2022-11-14T04:47:14;44.30;;;17.27;;
64282;SDS011;50497;50.720;-2.084;2022-11-14T04:49:40;33.90;;;15.93;;
64282;SDS011;50497;50.720;-2.084;2022-11-14T04:52:05;42.88;;;15.98;;
64282;SDS011;50497;50.720;-2.084;2022-11-14T04:54:30;39.15;;;15.77;;
64282;SDS011;50497;50.720;-2.084;2022-11-14T04:56:56;37.13;;;15.00;;
64282;SDS011;50497;50.720;-2.084;2022-11-14T04:59:21;41.15;;;16.08;;
64282;SDS011;50497;50.720;-2.084;2022-11-14T05:01:47;36.05;;;14.85;;
64282;SDS011;50497;50.720;-2.084;2022-11-14T05:04:12;36.67;;;15.85;;
64282;SDS011;50497;50.720;-2.084;2022-11-14T05:06:37;33.33;;;15.77;;
64282;SDS011;50497;50.720;-2.084;2022-11-14T05:09:04;31.50;;;15.77;;
64282;SDS011;50497;50.720;-2.084;2022-11-14T05:11:30;38.65;;;15.98;;
64282;SDS011;50497;50.720;-2.084;2022-11-14T05:13:55;32.05;;;15.50;;
64282;SDS011;50497;50.720;-2.084;2022-11-14T05:16:20;35.90;;;16.52;;
64282;SDS011;50497;50.720;-2.084;2022-11-14T05:18:46;42.97;;;17.35;;
64282;SDS011;50497;50.720;-2.084;2022-11-14T05:21:12;32.33;;;14.40;;
64282;SDS011;50497;50.720;-2.084;2022-11-14T05:23:38;35.55;;;16.25;;
64282;SDS011;50497;50.720;-2.084;2022-11-14T05:26:05;37.42;;;15.88;;
64282;SDS011;50497;50.720;-2.084;2022-11-14T05:28:33;36.00;;;15.70;;
64282;SDS011;50497;50.720;-2.084;2022-11-14T05:33:31;28.75;;;14.20;;
64282;SDS011;50497;50.720;-2.084;2022-11-14T05:36:02;30.63;;;14.55;;
64282;SDS011;50497;50.720;-2.084;2022-11-14T05:38:32;34.15;;;15.20;;
64282;SDS011;50497;50.720;-2.084;2022-11-14T05:41:02;48.80;;;16.75;;
64282;SDS011;50497;50.720;-2.084;2022-11-14T05:43:30;36.30;;;16.00;;
64282;SDS011;50497;50.720;-2.084;2022-11-14T05:45:59;28.27;;;14.70;;
64282;SDS011;50497;50.720;-2.084;2022-11-14T05:48:28;29.90;;;14.48;;
64282;SDS011;50497;50.720;-2.084;2022-11-14T05:50:55;40.80;;;15.13;;
64282;SDS011;50497;50.720;-2.084;2022-11-14T05:53:25;39.95;;;15.23;;
64282;SDS011;50497;50.720;-2.084;2022-11-14T05:58:17;30.90;;;13.18;;
64282;SDS011;50497;50.720;-2.084;2022-11-14T06:00:43;33.25;;;13.55;;
64282;SDS011;50497;50.720;-2.084;2022-11-14T06:03:08;26.48;;;12.60;;
64282;SDS011;50497;50.720;-2.084;2022-11-14T06:05:34;35.40;;;13.85;;
64282;SDS011;50497;50.720;-2.084;2022-11-14T06:08:00;24.20;;;12.23;;
64282;SDS011;50497;50.720;-2.084;2022-11-14T06:10:26;35.08;;;13.82;;
64282;SDS011;50497;50.720;-2.084;2022-11-14T06:12:51;31.38;;;12.68;;
64282;SDS011;50497;50.720;-2.084;2022-11-14T06:15:17;31.25;;;12.95;;
64282;SDS011;50497;50.720;-2.084;2022-11-14T06:17:43;28.65;;;13.65;;
64282;SDS011;50497;50.720;-2.084;2022-11-14T06:20:09;23.35;;;12.60;;
64282;SDS011;50497;50.720;-2.084;2022-11-14T06:22:34;37.70;;;14.00;;
64282;SDS011;50497;50.720;-2.084;2022-11-14T06:25:00;35.95;;;14.43;;
64282;SDS011;50497;50.720;-2.084;2022-11-14T06:27:26;33.53;;;14.38;;
64282;SDS011;50497;50.720;-2.084;2022-11-14T06:29:52;31.55;;;14.23;;
64282;SDS011;50497;50.720;-2.084;2022-11-14T06:32:17;38.95;;;15.45;;
64282;SDS011;50497;50.720;-2.084;2022-11-14T06:34:42;37.15;;;15.82;;
64282;SDS011;50497;50.720;-2.084;2022-11-14T06:37:08;29.10;;;13.85;;
64282;SDS011;50497;50.720;-2.084;2022-11-14T06:39:33;45.17;;;16.15;;
64282;SDS011;50497;50.720;-2.084;2022-11-14T06:41:59;39.35;;;14.48;;
64282;SDS011;50497;50.720;-2.084;2022-11-14T06:44:24;30.85;;;14.73;;
64282;SDS011;50497;50.720;-2.084;2022-11-14T06:46:49;34.05;;;14.95;;
64282;SDS011;50497;50.720;-2.084;2022-11-14T06:49:15;36.90;;;14.93;;
64282;SDS011;50497;50.720;-2.084;2022-11-14T06:51:40;37.40;;;16.80;;
64282;SDS011;50497;50.720;-2.084;2022-11-14T06:54:06;34.28;;;15.38;;
64282;SDS011;50497;50.720;-2.084;2022-11-14T06:56:31;47.00;;;16.70;;
64282;SDS011;50497;50.720;-2.084;2022-11-14T06:58:57;37.95;;;16.13;;
64282;SDS011;50497;50.720;-2.084;2022-11-14T07:01:23;51.85;;;20.20;;
64282;SDS011;50497;50.720;-2.084;2022-11-14T07:03:52;46.78;;;17.60;;
64282;SDS011;50497;50.720;-2.084;2022-11-14T07:06:19;38.42;;;16.80;;
64282;SDS011;50497;50.720;-2.084;2022-11-14T07:08:47;52.35;;;17.67;;
64282;SDS011;50497;50.720;-2.084;2022-11-14T07:11:14;45.25;;;16.50;;
64282;SDS011;50497;50.720;-2.084;2022-11-14T07:13:50;42.03;;;15.77;;
64282;SDS011;50497;50.720;-2.084;2022-11-14T07:16:16;34.30;;;14.30;;
64282;SDS011;50497;50.720;-2.084;2022-11-14T07:18:42;38.08;;;15.90;;
64282;SDS011;50497;50.720;-2.084;2022-11-14T07:21:08;29.67;;;15.27;;
64282;SDS011;50497;50.720;-2.084;2022-11-14T07:23:34;38.10;;;19.52;;
64282;SDS011;50497;50.720;-2.084;2022-11-14T07:26:03;43.33;;;20.25;;
64282;SDS011;50497;50.720;-2.084;2022-11-14T07:28:34;41.53;;;19.42;;
64282;SDS011;50497;50.720;-2.084;2022-11-14T07:31:04;47.88;;;19.05;;
64282;SDS011;50497;50.720;-2.084;2022-11-14T07:33:31;45.10;;;17.30;;
64282;SDS011;50497;50.720;-2.084;2022-11-14T07:35:56;45.85;;;18.05;;
64282;SDS011;50497;50.720;-2.084;2022-11-14T07:38:22;28.65;;;15.95;;
64282;SDS011;50497;50.720;-2.084;2022-11-14T07:40:58;28.88;;;15.35;;
64282;SDS011;50497;50.720;-2.084;2022-11-14T07:43:25;40.85;;;18.20;;
64282;SDS011;50497;50.720;-2.084;2022-11-14T07:45:51;35.35;;;17.42;;
64282;SDS011;50497;50.720;-2.084;2022-11-14T07:48:17;32.80;;;15.60;;
64282;SDS011;50497;50.720;-2.084;2022-11-14T07:50:43;47.83;;;18.25;;
64282;SDS011;50497;50.720;-2.084;2022-11-14T07:53:09;39.03;;;17.40;;
64282;SDS011;50497;50.720;-2.084;2022-11-14T07:55:35;49.00;;;18.02;;
64282;SDS011;50497;50.720;-2.084;2022-11-14T07:58:00;35.42;;;17.08;;
64282;SDS011;50497;50.720;-2.084;2022-11-14T08:00:26;32.60;;;15.43;;
64282;SDS011;50497;50.720;-2.084;2022-11-14T08:02:52;31.70;;;14.15;;
64282;SDS011;50497;50.720;-2.084;2022-11-14T08:05:17;40.45;;;16.13;;
64282;SDS011;50497;50.720;-2.084;2022-11-14T08:07:43;24.08;;;12.25;;
64282;SDS011;50497;50.720;-2.084;2022-11-14T08:10:09;36.42;;;14.63;;
64282;SDS011;50497;50.720;-2.084;2022-11-14T08:12:36;22.70;;;11.88;;
64282;SDS011;50497;50.720;-2.084;2022-11-14T08:15:04;34.13;;;13.48;;
64282;SDS011;50497;50.720;-2.084;2022-11-14T08:17:33;30.85;;;13.45;;
64282;SDS011;50497;50.720;-2.084;2022-11-14T08:19:59;26.70;;;12.88;;
64282;SDS011;50497;50.720;-2.084;2022-11-14T08:22:24;28.50;;;13.80;;
64282;SDS011;50497;50.720;-2.084;2022-11-14T08:24:50;32.33;;;15.52;;
64282;SDS011;50497;50.720;-2.084;2022-11-14T08:27:15;26.60;;;13.95;;
64282;SDS011;50497;50.720;-2.084;2022-11-14T08:29:41;26.73;;;13.25;;
64282;SDS011;50497;50.720;-2.084;2022-11-14T08:32:07;23.23;;;12.90;;
64282;SDS011;50497;50.720;-2.084;2022-11-14T08:34:32;36.55;;;14.15;;
64282;SDS011;50497;50.720;-2.084;2022-11-14T08:36:57;28.85;;;13.05;;
64282;SDS011;50497;50.720;-2.084;2022-11-14T08:39:23;28.65;;;13.68;;
64282;SDS011;50497;50.720;-2.084;2022-11-14T08:41:48;31.83;;;14.50;;
64282;SDS011;50497;50.720;-2.084;2022-11-14T08:44:14;28.23;;;12.93;;
64282;SDS011;50497;50.720;-2.084;2022-11-14T08:46:39;35.42;;;15.15;;
64282;SDS011;50497;50.720;-2.084;2022-11-14T08:49:05;33.08;;;15.82;;
64282;SDS011;50497;50.720;-2.084;2022-11-14T08:51:31;37.58;;;16.45;;
64282;SDS011;50497;50.720;-2.084;2022-11-14T08:53:56;38.97;;;17.00;;
64282;SDS011;50497;50.720;-2.084;2022-11-14T08:56:21;37.88;;;15.98;;
64282;SDS011;50497;50.720;-2.084;2022-11-14T08:58:47;37.67;;;17.08;;
64282;SDS011;50497;50.720;-2.084;2022-11-14T09:01:12;32.30;;;15.38;;
64282;SDS011;50497;50.720;-2.084;2022-11-14T09:03:38;31.13;;;13.85;;
64282;SDS011;50497;50.720;-2.084;2022-11-14T09:06:03;31.05;;;16.63;;
64282;SDS011;50497;50.720;-2.084;2022-11-14T09:08:29;25.60;;;12.57;;
64282;SDS011;50497;50.720;-2.084;2022-11-14T09:10:58;23.40;;;13.10;;
64282;SDS011;50497;50.720;-2.084;2022-11-14T09:13:24;28.42;;;13.30;;
64282;SDS011;50497;50.720;-2.084;2022-11-14T09:15:51;27.75;;;14.30;;
64282;SDS011;50497;50.720;-2.084;2022-11-14T09:18:16;23.55;;;13.07;;
64282;SDS011;50497;50.720;-2.084;2022-11-14T09:20:42;23.48;;;12.50;;
64282;SDS011;50497;50.720;-2.084;2022-11-14T09:23:08;28.92;;;13.63;;
64282;SDS011;50497;50.720;-2.084;2022-11-14T09:25:34;23.90;;;12.43;;
64282;SDS011;50497;50.720;-2.084;2022-11-14T09:28:02;27.45;;;12.15;;
64282;SDS011;50497;50.720;-2.084;2022-11-14T09:30:29;21.27;;;11.00;;
64282;SDS011;50497;50.720;-2.084;2022-11-14T09:32:57;23.30;;;11.02;;
64282;SDS011;50497;50.720;-2.084;2022-11-14T09:35:25;25.25;;;13.15;;
64282;SDS011;50497;50.720;-2.084;2022-11-14T09:37:57;25.70;;;12.45;;
64282;SDS011;50497;50.720;-2.084;2022-11-14T09:40:24;34.08;;;15.02;;
64282;SDS011;50497;50.720;-2.084;2022-11-14T09:45:48;29.52;;;14.82;;
64282;SDS011;50497;50.720;-2.084;2022-11-14T09:48:17;32.03;;;15.00;;
64282;SDS011;50497;50.720;-2.084;2022-11-14T09:51:28;30.85;;;15.40;;
64282;SDS011;50497;50.720;-2.084;2022-11-14T09:53:41;26.63;;;14.35;;
64282;SDS011;50497;50.720;-2.084;2022-11-14T09:56:12;28.52;;;14.45;;
64282;SDS011;50497;50.720;-2.084;2022-11-14T09:58:43;28.45;;;14.90;;
64282;SDS011;50497;50.720;-2.084;2022-11-14T10:03:50;26.67;;;13.93;;
64282;SDS011;50497;50.720;-2.084;2022-11-14T10:11:37;24.23;;;13.13;;
64282;SDS011;50497;50.720;-2.084;2022-11-14T10:17:12;20.98;;;11.88;;
64282;SDS011;50497;50.720;-2.084;2022-11-14T10:28:18;19.00;;;10.18;;
64282;SDS011;50497;50.720;-2.084;2022-11-14T10:30:29;15.52;;;8.52;;
64282;SDS011;50497;50.720;-2.084;2022-11-14T10:33:07;16.55;;;8.95;;
64282;SDS011;50497;50.720;-2.084;2022-11-14T10:35:46;14.75;;;7.70;;
64282;SDS011;50497;50.720;-2.084;2022-11-14T10:38:42;14.55;;;7.82;;
64282;SDS011;50497;50.720;-2.084;2022-11-14T10:41:24;15.13;;;8.00;;
64282;SDS011;50497;50.720;-2.084;2022-11-14T10:43:57;17.90;;;8.15;;
64282;SDS011;50497;50.720;-2.084;2022-11-14T10:46:33;14.02;;;6.45;;
64282;SDS011;50497;50.720;-2.084;2022-11-14T10:49:10;14.77;;;7.30;;
64282;SDS011;50497;50.720;-2.084;2022-11-14T10:51:55;12.32;;;6.47;;
64282;SDS011;50497;50.720;-2.084;2022-11-14T10:54:31;13.10;;;7.00;;
64282;SDS011;50497;50.720;-2.084;2022-11-14T10:57:12;14.93;;;7.28;;
64282;SDS011;50497;50.720;-2.084;2022-11-14T10:59:42;15.93;;;7.60;;
64282;SDS011;50497;50.720;-2.084;2022-11-14T11:02:14;13.38;;;7.07;;
64282;SDS011;50497;50.720;-2.084;2022-11-14T11:04:40;15.35;;;6.80;;
64282;SDS011;50497;50.720;-2.084;2022-11-14T11:09:58;13.85;;;6.88;;
64282;SDS011;50497;50.720;-2.084;2022-11-14T11:12:45;13.00;;;7.13;;
64282;SDS011;50497;50.720;-2.084;2022-11-14T11:15:21;12.93;;;6.82;;
64282;SDS011;50497;50.720;-2.084;2022-11-14T11:18:01;13.45;;;6.78;;
64282;SDS011;50497;50.720;-2.084;2022-11-14T11:20:36;14.02;;;6.90;;
64282;SDS011;50497;50.720;-2.084;2022-11-14T11:23:15;13.05;;;6.65;;
64282;SDS011;50497;50.720;-2.084;2022-11-14T11:25:43;11.85;;;6.20;;
64282;SDS011;50497;50.720;-2.084;2022-11-14T11:35:50;12.55;;;6.57;;
64282;SDS011;50497;50.720;-2.084;2022-11-14T11:38:20;13.57;;;6.60;;
64282;SDS011;50497;50.720;-2.084;2022-11-14T11:40:58;13.18;;;7.15;;
64282;SDS011;50497;50.720;-2.084;2022-11-14T11:43:33;15.25;;;5.95;;
64282;SDS011;50497;50.720;-2.084;2022-11-14T11:49:27;10.43;;;5.82;;
64282;SDS011;50497;50.720;-2.084;2022-11-14T11:57:14;13.38;;;6.30;;
64282;SDS011;50497;50.720;-2.084;2022-11-14T11:59:48;12.55;;;6.10;;
64282;SDS011;50497;50.720;-2.084;2022-11-14T12:02:23;10.98;;;5.70;;
64282;SDS011;50497;50.720;-2.084;2022-11-14T12:04:50;14.57;;;6.20;;
64282;SDS011;50497;50.720;-2.084;2022-11-14T12:07:19;16.00;;;6.82;;
64282;SDS011;50497;50.720;-2.084;2022-11-14T12:09:48;12.57;;;7.03;;
64282;SDS011;50497;50.720;-2.084;2022-11-14T12:31:43;12.35;;;6.75;;
64282;SDS011;50497;50.720;-2.084;2022-11-14T12:34:29;13.38;;;6.68;;
64282;SDS011;50497;50.720;-2.084;2022-11-14T12:36:59;12.95;;;7.03;;
64282;SDS011;50497;50.720;-2.084;2022-11-14T12:39:25;14.32;;;7.50;;
64282;SDS011;50497;50.720;-2.084;2022-11-14T12:42:03;13.65;;;6.78;;
64282;SDS011;50497;50.720;-2.084;2022-11-14T12:58:09;10.23;;;5.18;;
64282;SDS011;50497;50.720;-2.084;2022-11-14T13:11:58;11.15;;;5.30;;
64282;SDS011;50497;50.720;-2.084;2022-11-14T13:14:59;10.98;;;4.93;;
64282;SDS011;50497;50.720;-2.084;2022-11-14T13:18:11;9.57;;;3.72;;
64282;SDS011;50497;50.720;-2.084;2022-11-14T13:21:02;10.77;;;5.05;;
64282;SDS011;50497;50.720;-2.084;2022-11-14T13:23:59;14.40;;;6.50;;
64282;SDS011;50497;50.720;-2.084;2022-11-14T13:28:58;11.13;;;4.93;;
64282;SDS011;50497;50.720;-2.084;2022-11-14T13:40:00;8.80;;;3.00;;
64282;SDS011;50497;50.720;-2.084;2022-11-14T13:42:33;8.75;;;3.50;;
64282;SDS011;50497;50.720;-2.084;2022-11-14T13:50:41;9.10;;;3.55;;
64282;SDS011;50497;50.720;-2.084;2022-11-14T13:53:16;7.40;;;3.50;;
64282;SDS011;50497;50.720;-2.084;2022-11-14T13:58:51;6.70;;;2.90;;
64282;SDS011;50497;50.720;-2.084;2022-11-14T14:09:41;4.97;;;1.60;;
64282;SDS011;50497;50.720;-2.084;2022-11-14T14:12:21;4.22;;;1.42;;
64282;SDS011;50497;50.720;-2.084;2022-11-14T14:15:07;4.53;;;1.70;;
64282;SDS011;50497;50.720;-2.084;2022-11-14T14:20:18;6.00;;;2.25;;
64282;SDS011;50497;50.720;-2.084;2022-11-14T14:31:01;7.00;;;1.90;;
64282;SDS011;50497;50.720;-2.084;2022-11-14T14:33:52;3.55;;;1.33;;
64282;SDS011;50497;50.720;-2.084;2022-11-14T14:36:27;4.05;;;1.25;;
64282;SDS011;50497;50.720;-2.084;2022-11-14T14:39:16;4.60;;;1.70;;
64282;SDS011;50497;50.720;-2.084;2022-11-14T14:41:44;3.78;;;1.30;;
64282;SDS011;50497;50.720;-2.084;2022-11-14T14:46:43;3.58;;;1.48;;
64282;SDS011;50497;50.720;-2.084;2022-11-14T14:49:09;3.78;;;1.58;;
64282;SDS011;50497;50.720;-2.084;2022-11-14T14:51:35;4.07;;;1.60;;
64282;SDS011;50497;50.720;-2.084;2022-11-14T14:54:02;4.47;;;1.65;;
64282;SDS011;50497;50.720;-2.084;2022-11-14T14:56:28;5.60;;;2.05;;
64282;SDS011;50497;50.720;-2.084;2022-11-14T14:58:53;6.75;;;2.10;;
64282;SDS011;50497;50.720;-2.084;2022-11-14T15:01:21;5.78;;;1.90;;
64282;SDS011;50497;50.720;-2.084;2022-11-14T15:04:00;5.85;;;1.70;;
64282;SDS011;50497;50.720;-2.084;2022-11-14T15:06:33;3.90;;;1.52;;
64282;SDS011;50497;50.720;-2.084;2022-11-14T15:09:13;5.15;;;1.50;;
64282;SDS011;50497;50.720;-2.084;2022-11-14T15:11:43;2.58;;;1.00;;
64282;SDS011;50497;50.720;-2.084;2022-11-14T15:14:17;3.90;;;1.30;;
64282;SDS011;50497;50.720;-2.084;2022-11-14T15:16:46;6.85;;;1.60;;
64282;SDS011;50497;50.720;-2.084;2022-11-14T15:19:15;4.38;;;1.70;;
64282;SDS011;50497;50.720;-2.084;2022-11-14T15:21:44;6.43;;;1.83;;
64282;SDS011;50497;50.720;-2.084;2022-11-14T15:24:21;4.35;;;1.80;;
64282;SDS011;50497;50.720;-2.084;2022-11-14T15:26:47;6.00;;;2.15;;
64282;SDS011;50497;50.720;-2.084;2022-11-14T15:29:19;5.75;;;2.10;;
64282;SDS011;50497;50.720;-2.084;2022-11-14T15:31:46;6.15;;;1.98;;
64282;SDS011;50497;50.720;-2.084;2022-11-14T15:34:36;3.92;;;1.85;;
64282;SDS011;50497;50.720;-2.084;2022-11-14T15:39:43;5.25;;;1.80;;
64282;SDS011;50497;50.720;-2.084;2022-11-14T15:44:48;5.30;;;1.90;;
64282;SDS011;50497;50.720;-2.084;2022-11-14T15:47:17;5.13;;;1.85;;
64282;SDS011;50497;50.720;-2.084;2022-11-14T15:50:02;3.05;;;1.40;;
64282;SDS011;50497;50.720;-2.084;2022-11-14T15:52:38;4.50;;;1.85;;
64282;SDS011;50497;50.720;-2.084;2022-11-14T15:55:12;4.97;;;1.80;;
64282;SDS011;50497;50.720;-2.084;2022-11-14T15:57:42;4.72;;;1.67;;
64282;SDS011;50497;50.720;-2.084;2022-11-14T16:00:11;4.38;;;1.40;;
64282;SDS011;50497;50.720;-2.084;2022-11-14T16:02:59;4.93;;;1.80;;
64282;SDS011;50497;50.720;-2.084;2022-11-14T16:05:28;6.63;;;1.73;;
64282;SDS011;50497;50.720;-2.084;2022-11-14T16:07:54;5.40;;;1.50;;
64282;SDS011;50497;50.720;-2.084;2022-11-14T16:10:21;2.97;;;1.50;;
64282;SDS011;50497;50.720;-2.084;2022-11-14T16:12:48;4.85;;;1.70;;
64282;SDS011;50497;50.720;-2.084;2022-11-14T16:15:15;3.70;;;1.40;;
64282;SDS011;50497;50.720;-2.084;2022-11-14T16:17:42;4.85;;;1.50;;
64282;SDS011;50497;50.720;-2.084;2022-11-14T16:20:16;3.88;;;1.55;;
64282;SDS011;50497;50.720;-2.084;2022-11-14T16:22:45;5.40;;;2.13;;
64282;SDS011;50497;50.720;-2.084;2022-11-14T16:27:43;8.40;;;3.70;;
64282;SDS011;50497;50.720;-2.084;2022-11-14T16:32:36;9.00;;;4.63;;
64282;SDS011;50497;50.720;-2.084;2022-11-14T16:35:01;4.82;;;2.08;;
64282;SDS011;50497;50.720;-2.084;2022-11-14T16:37:27;6.47;;;1.80;;
64282;SDS011;50497;50.720;-2.084;2022-11-14T16:39:52;3.70;;;1.60;;
64282;SDS011;50497;50.720;-2.084;2022-11-14T16:42:18;3.85;;;1.50;;
64282;SDS011;50497;50.720;-2.084;2022-11-14T16:44:43;6.93;;;1.60;;
64282;SDS011;50497;50.720;-2.084;2022-11-14T16:47:10;6.85;;;1.42;;
64282;SDS011;50497;50.720;-2.084;2022-11-14T16:49:38;4.00;;;1.58;;
64282;SDS011;50497;50.720;-2.084;2022-11-14T16:52:03;6.90;;;3.35;;